Terminal Aerodrome Forecast
Issued by NWS

Current Version | Previous Version | Graphics & Text | Print | Product List | Glossary On
Versions: 1 2 3 4 5 6 7 8 9 10 11 12 13 14 15
000
FTUS41 KILN 212339
TAFLUK
TAF
KLUK 212339Z 2200/2224 00000KT P6SM SCT150
     FM220500 00000KT 4SM BR SKC
      TEMPO 2208/2212 00000KT 1/4SM FG VV002
     FM221300 00000KT P6SM SKC
     FM221600 07004KT P6SM SCT040=

USA.gov is the U.S. government's official web portal to all federal, state and local government web resources and services.